METAR AND TAF INFORMATION
METAR FOR PADK
ADDS - METARS form results

(1515 UTC 24 May 2019)
Data provider http://aviationweather.gov/metar/data/
 
METAR text: PADK 241456Z AUTO 02014KT 10SM OVC019 05/01 A3012 RMK AO2 PK WND 01026/1412 SLP198 T00500011 56006
Conditions at: PADK (ADAK NAS , AK, US) observed 1456 UTC 24 May 2019
Temperature: 5.0°C (41°F)
Dewpoint: 1.1°C (34°F) [RH = 76%]
Pressure (altimeter): 30.12 inches Hg (1020.1 mb)
[Sea-level pressure: 1019.8 mb]
Winds: from the NNE (20 degrees) at 16 MPH (14 knots; 7.2 m/s)
Visibility: 10 or more miles (16+ km)
Ceiling: 1900 feet AGL
Clouds: overcast cloud deck at 1900 feet AGL
Weather: automated observation with no human augmentation;
there may or may not be significant weather present at this time

 AIRPORT MAP

 RUNWAY INFORMATION
Runway 05 Runway length 7790 ft Runway width 200 ft
Runway elevation 17 ft Runway displaced threshold 0 ft Runway heading 61
Runway 23 Runway length 7790 ft Runway width 200 ft
Runway elevation 15 ft Runway displaced threshold 0 ft Runway heading 241
Runway 18 Runway length 7605 ft Runway width 200 ft
Runway elevation 6 ft Runway displaced threshold 0 ft Runway heading 185
Runway 36 Runway length 7605 ft Runway width 200 ft
Runway elevation 4 ft Runway displaced threshold 0 ft Runway heading 5

 AIRPORT FREQUENCIES

 AIRPORT NEAR NAVIGATION AIDS
Type NDB-DME Name Mount Moffett Frequency 530 KHZ
Type TACAN Name Adak Frequency 113000 KHZ



Powered by Virtual Airlines Manager [v2.6.2]